sensor_id;sensor_type;location;lat;lon;timestamp;pressure;altitude;pressure_sealevel;temperature;humidity
74621;BME280;64861;47.546;19.254;2023-03-14T00:01:22;98453.03;;;22.69;44.44
74621;BME280;64861;47.546;19.254;2023-03-14T00:03:49;98456.69;;;22.68;44.49
74621;BME280;64861;47.546;19.254;2023-03-14T00:06:16;98446.03;;;22.68;44.63
74621;BME280;64861;47.546;19.254;2023-03-14T00:08:43;98447.06;;;22.67;44.58
74621;BME280;64861;47.546;19.254;2023-03-14T00:11:12;98433.97;;;22.65;44.58
74621;BME280;64861;47.546;19.254;2023-03-14T00:13:38;98431.09;;;22.67;44.61
74621;BME280;64861;47.546;19.254;2023-03-14T00:16:06;98422.91;;;22.68;44.60
74621;BME280;64861;47.546;19.254;2023-03-14T00:18:32;98423.69;;;22.62;44.61
74621;BME280;64861;47.546;19.254;2023-03-14T00:21:02;98418.97;;;22.64;44.50
74621;BME280;64861;47.546;19.254;2023-03-14T00:23:29;98422.47;;;22.65;44.59
74621;BME280;64861;47.546;19.254;2023-03-14T00:26:07;98417.78;;;22.67;44.59
74621;BME280;64861;47.546;19.254;2023-03-14T00:28:33;98410.59;;;22.67;44.43
74621;BME280;64861;47.546;19.254;2023-03-14T00:30:58;98407.13;;;22.67;44.43
74621;BME280;64861;47.546;19.254;2023-03-14T00:33:24;98397.25;;;22.61;44.71
74621;BME280;64861;47.546;19.254;2023-03-14T00:35:57;98402.81;;;22.66;44.66
74621;BME280;64861;47.546;19.254;2023-03-14T00:38:24;98396.88;;;22.64;44.60
74621;BME280;64861;47.546;19.254;2023-03-14T00:40:51;98383.53;;;22.64;44.63
74621;BME280;64861;47.546;19.254;2023-03-14T00:43:17;98381.09;;;22.62;44.63
74621;BME280;64861;47.546;19.254;2023-03-14T00:45:42;98375.94;;;22.61;44.66
74621;BME280;64861;47.546;19.254;2023-03-14T00:48:08;98369.81;;;22.60;44.73
74621;BME280;64861;47.546;19.254;2023-03-14T00:50:33;98372.72;;;22.65;44.56
74621;BME280;64861;47.546;19.254;2023-03-14T00:52:59;98371.44;;;22.61;44.56
74621;BME280;64861;47.546;19.254;2023-03-14T00:55:25;98365.13;;;22.62;44.59
74621;BME280;64861;47.546;19.254;2023-03-14T00:57:50;98365.13;;;22.62;44.69
74621;BME280;64861;47.546;19.254;2023-03-14T01:00:16;98358.13;;;22.61;44.55
74621;BME280;64861;47.546;19.254;2023-03-14T01:02:41;98366.97;;;22.62;44.68
74621;BME280;64861;47.546;19.254;2023-03-14T01:05:07;98355.47;;;22.61;44.60
74621;BME280;64861;47.546;19.254;2023-03-14T01:07:35;98343.97;;;22.54;44.67
74621;BME280;64861;47.546;19.254;2023-03-14T01:10:01;98350.13;;;22.61;44.73
74621;BME280;64861;47.546;19.254;2023-03-14T01:12:27;98356.31;;;22.62;44.60
74621;BME280;64861;47.546;19.254;2023-03-14T01:14:52;98346.25;;;22.64;44.50
74621;BME280;64861;47.546;19.254;2023-03-14T01:17:18;98353.66;;;22.62;44.67
74621;BME280;64861;47.546;19.254;2023-03-14T01:19:43;98348.91;;;22.57;44.60
74621;BME280;64861;47.546;19.254;2023-03-14T01:22:09;98325.56;;;22.59;44.63
74621;BME280;64861;47.546;19.254;2023-03-14T01:24:36;98334.75;;;22.57;44.77
74621;BME280;64861;47.546;19.254;2023-03-14T01:27:02;98332.91;;;22.57;44.68
74621;BME280;64861;47.546;19.254;2023-03-14T01:29:28;98333.56;;;22.59;44.47
74621;BME280;64861;47.546;19.254;2023-03-14T01:31:54;98321.69;;;22.62;44.53
74621;BME280;64861;47.546;19.254;2023-03-14T01:34:20;98323.91;;;22.58;44.49
74621;BME280;64861;47.546;19.254;2023-03-14T01:36:46;98314.09;;;22.59;44.63
74621;BME280;64861;47.546;19.254;2023-03-14T01:39:11;98291.13;;;22.58;44.67
74621;BME280;64861;47.546;19.254;2023-03-14T01:44:04;98302.41;;;22.60;44.68
74621;BME280;64861;47.546;19.254;2023-03-14T01:49:18;98289.09;;;22.60;44.41
74621;BME280;64861;47.546;19.254;2023-03-14T01:56:45;98270.66;;;22.58;44.51
74621;BME280;64861;47.546;19.254;2023-03-14T01:59:12;98266.56;;;22.56;44.66
74621;BME280;64861;47.546;19.254;2023-03-14T02:01:38;98264.31;;;22.59;44.50
74621;BME280;64861;47.546;19.254;2023-03-14T02:04:07;98267.38;;;22.56;44.64
74621;BME280;64861;47.546;19.254;2023-03-14T02:06:42;98270.03;;;22.56;44.58
74621;BME280;64861;47.546;19.254;2023-03-14T02:09:09;98255.91;;;22.56;44.48
74621;BME280;64861;47.546;19.254;2023-03-14T02:11:34;98255.09;;;22.55;44.41
74621;BME280;64861;47.546;19.254;2023-03-14T02:14:01;98244.22;;;22.57;44.39
74621;BME280;64861;47.546;19.254;2023-03-14T02:16:27;98239.94;;;22.56;44.40
74621;BME280;64861;47.546;19.254;2023-03-14T02:18:52;98225.38;;;22.58;44.31
74621;BME280;64861;47.546;19.254;2023-03-14T02:21:23;98223.56;;;22.59;44.39
74621;BME280;64861;47.546;19.254;2023-03-14T02:24:11;98208.00;;;22.56;44.42
74621;BME280;64861;47.546;19.254;2023-03-14T02:29:26;98203.06;;;22.52;44.65
74621;BME280;64861;47.546;19.254;2023-03-14T02:31:53;98208.38;;;22.52;44.51
74621;BME280;64861;47.546;19.254;2023-03-14T02:34:19;98198.13;;;22.49;44.51
74621;BME280;64861;47.546;19.254;2023-03-14T02:36:44;98209.84;;;22.55;44.46
74621;BME280;64861;47.546;19.254;2023-03-14T02:39:38;98204.28;;;22.57;44.36
74621;BME280;64861;47.546;19.254;2023-03-14T02:42:04;98195.91;;;22.60;44.56
74621;BME280;64861;47.546;19.254;2023-03-14T02:44:30;98184.63;;;22.58;44.38
74621;BME280;64861;47.546;19.254;2023-03-14T02:46:55;98179.09;;;22.52;44.47
74621;BME280;64861;47.546;19.254;2023-03-14T02:49:21;98178.47;;;22.57;44.34
74621;BME280;64861;47.546;19.254;2023-03-14T02:51:47;98173.16;;;22.50;44.56
74621;BME280;64861;47.546;19.254;2023-03-14T02:54:14;98175.81;;;22.57;44.51
74621;BME280;64861;47.546;19.254;2023-03-14T02:56:40;98177.88;;;22.55;44.55
74621;BME280;64861;47.546;19.254;2023-03-14T02:59:06;98181.53;;;22.47;44.65
74621;BME280;64861;47.546;19.254;2023-03-14T03:01:33;98172.75;;;22.54;44.58
74621;BME280;64861;47.546;19.254;2023-03-14T03:03:58;98172.97;;;22.52;44.50
74621;BME280;64861;47.546;19.254;2023-03-14T03:06:23;98160.88;;;22.49;44.55
74621;BME280;64861;47.546;19.254;2023-03-14T03:08:49;98152.66;;;22.51;44.43
74621;BME280;64861;47.546;19.254;2023-03-14T03:11:15;98152.06;;;22.49;44.58
74621;BME280;64861;47.546;19.254;2023-03-14T03:13:40;98152.66;;;22.51;44.61
74621;BME280;64861;47.546;19.254;2023-03-14T03:16:06;98157.00;;;22.52;44.57
74621;BME280;64861;47.546;19.254;2023-03-14T03:18:31;98161.28;;;22.53;44.55
74621;BME280;64861;47.546;19.254;2023-03-14T03:21:01;98155.53;;;22.49;44.67
74621;BME280;64861;47.546;19.254;2023-03-14T03:23:27;98159.66;;;22.52;44.63
74621;BME280;64861;47.546;19.254;2023-03-14T03:25:53;98161.47;;;22.51;44.38
74621;BME280;64861;47.546;19.254;2023-03-14T03:28:19;98155.13;;;22.52;44.39
74621;BME280;64861;47.546;19.254;2023-03-14T03:30:45;98151.25;;;22.48;44.57
74621;BME280;64861;47.546;19.254;2023-03-14T03:33:11;98146.53;;;22.50;44.59
74621;BME280;64861;47.546;19.254;2023-03-14T03:35:52;98146.53;;;22.50;44.53
74621;BME280;64861;47.546;19.254;2023-03-14T03:38:18;98152.66;;;22.51;44.42
74621;BME280;64861;47.546;19.254;2023-03-14T03:40:45;98147.56;;;22.49;44.50
74621;BME280;64861;47.546;19.254;2023-03-14T03:43:10;98143.69;;;22.52;44.60
74621;BME280;64861;47.546;19.254;2023-03-14T03:45:36;98139.56;;;22.49;44.52
74621;BME280;64861;47.546;19.254;2023-03-14T03:48:01;98129.94;;;22.48;44.54
74621;BME280;64861;47.546;19.254;2023-03-14T03:50:27;98130.75;;;22.49;44.46
74621;BME280;64861;47.546;19.254;2023-03-14T03:52:52;98121.53;;;22.51;44.45
74621;BME280;64861;47.546;19.254;2023-03-14T03:55:18;98126.44;;;22.48;44.45
74621;BME280;64861;47.546;19.254;2023-03-14T03:57:43;98129.72;;;22.50;44.55
74621;BME280;64861;47.546;19.254;2023-03-14T04:00:10;98137.09;;;22.48;44.52
74621;BME280;64861;47.546;19.254;2023-03-14T04:02:37;98129.31;;;22.46;44.44
74621;BME280;64861;47.546;19.254;2023-03-14T04:05:03;98129.72;;;22.50;44.41
74621;BME280;64861;47.546;19.254;2023-03-14T04:07:31;98137.72;;;22.50;44.42
74621;BME280;64861;47.546;19.254;2023-03-14T04:09:57;98130.34;;;22.45;44.56
74621;BME280;64861;47.546;19.254;2023-03-14T04:12:23;98138.13;;;22.47;44.53
74621;BME280;64861;47.546;19.254;2023-03-14T04:14:48;98135.88;;;22.50;44.44
74621;BME280;64861;47.546;19.254;2023-03-14T04:17:14;98130.75;;;22.49;44.40
74621;BME280;64861;47.546;19.254;2023-03-14T04:19:39;98121.53;;;22.51;44.39
74621;BME280;64861;47.546;19.254;2023-03-14T04:22:05;98126.44;;;22.48;44.37
74621;BME280;64861;47.546;19.254;2023-03-14T04:24:30;98117.22;;;22.44;44.50
74621;BME280;64861;47.546;19.254;2023-03-14T04:26:56;98117.44;;;22.49;44.40
74621;BME280;64861;47.546;19.254;2023-03-14T04:29:21;98114.16;;;22.47;44.53
74621;BME280;64861;47.546;19.254;2023-03-14T04:31:47;98115.78;;;22.48;44.35
74621;BME280;64861;47.546;19.254;2023-03-14T04:34:12;98115.78;;;22.48;44.33
74621;BME280;64861;47.546;19.254;2023-03-14T04:36:37;98094.91;;;22.45;44.46
74621;BME280;64861;47.546;19.254;2023-03-14T04:39:03;98115.59;;;22.49;44.39
74621;BME280;64861;47.546;19.254;2023-03-14T04:41:29;98102.28;;;22.49;44.54
74621;BME280;64861;47.546;19.254;2023-03-14T04:43:55;98091.25;;;22.46;43.84
74621;BME280;64861;47.546;19.254;2023-03-14T04:46:21;98079.53;;;22.34;43.53
74621;BME280;64861;47.546;19.254;2023-03-14T04:48:46;98088.97;;;22.36;42.70
74621;BME280;64861;47.546;19.254;2023-03-14T04:51:12;98096.16;;;22.36;43.40
74621;BME280;64861;47.546;19.254;2023-03-14T04:53:37;98099.41;;;22.38;43.61
74621;BME280;64861;47.546;19.254;2023-03-14T04:56:03;98094.09;;;22.44;43.64
74621;BME280;64861;47.546;19.254;2023-03-14T04:58:28;98103.34;;;22.48;43.37
74621;BME280;64861;47.546;19.254;2023-03-14T05:00:54;98101.06;;;22.45;43.61
74621;BME280;64861;47.546;19.254;2023-03-14T05:03:19;98103.91;;;22.44;43.67
74621;BME280;64861;47.546;19.254;2023-03-14T05:05:45;98096.97;;;22.49;43.64
74621;BME280;64861;47.546;19.254;2023-03-14T05:08:11;98093.50;;;22.56;43.68
74621;BME280;64861;47.546;19.254;2023-03-14T05:10:36;98100.22;;;22.58;43.16
74621;BME280;64861;47.546;19.254;2023-03-14T05:13:02;98100.66;;;22.55;43.32
74621;BME280;64861;47.546;19.254;2023-03-14T05:15:28;98095.94;;;22.57;43.34
74621;BME280;64861;47.546;19.254;2023-03-14T05:17:53;98095.53;;;22.54;43.31
74621;BME280;64861;47.546;19.254;2023-03-14T05:20:20;98089.19;;;22.55;43.39
74621;BME280;64861;47.546;19.254;2023-03-14T05:22:45;98093.91;;;22.59;43.54
74621;BME280;64861;47.546;19.254;2023-03-14T05:25:11;98085.28;;;22.57;43.27
74621;BME280;64861;47.546;19.254;2023-03-14T05:27:37;98084.88;;;22.54;43.68
74621;BME280;64861;47.546;19.254;2023-03-14T05:30:04;98078.53;;;22.61;43.89
74621;BME280;64861;47.546;19.254;2023-03-14T05:32:30;98089.81;;;22.57;44.18
74621;BME280;64861;47.546;19.254;2023-03-14T05:34:55;98085.28;;;22.64;44.14
74621;BME280;64861;47.546;19.254;2023-03-14T05:37:26;98082.03;;;22.62;44.03
74621;BME280;64861;47.546;19.254;2023-03-14T05:39:52;98086.50;;;22.61;43.98
74621;BME280;64861;47.546;19.254;2023-03-14T05:42:18;98084.25;;;22.65;44.04
74621;BME280;64861;47.546;19.254;2023-03-14T05:44:43;98081.41;;;22.60;43.94
74621;BME280;64861;47.546;19.254;2023-03-14T05:49:34;98075.06;;;22.67;44.02
74621;BME280;64861;47.546;19.254;2023-03-14T05:51:59;98064.22;;;22.69;44.06
74621;BME280;64861;47.546;19.254;2023-03-14T05:54:25;98068.72;;;22.68;43.91
74621;BME280;64861;47.546;19.254;2023-03-14T05:56:50;98067.28;;;22.66;44.01
74621;BME280;64861;47.546;19.254;2023-03-14T05:59:16;98069.53;;;22.69;43.89
74621;BME280;64861;47.546;19.254;2023-03-14T06:01:41;98088.59;;;22.72;43.83
74621;BME280;64861;47.546;19.254;2023-03-14T06:04:06;98078.34;;;22.76;43.71
74621;BME280;64861;47.546;19.254;2023-03-14T06:06:32;98081.19;;;22.81;43.63
74621;BME280;64861;47.546;19.254;2023-03-14T06:08:57;98085.69;;;22.81;43.82
74621;BME280;64861;47.546;19.254;2023-03-14T06:11:23;98082.84;;;22.82;43.85
74621;BME280;64861;47.546;19.254;2023-03-14T06:13:48;98081.81;;;22.83;43.86
74621;BME280;64861;47.546;19.254;2023-03-14T06:16:14;98073.00;;;22.83;43.88
74621;BME280;64861;47.546;19.254;2023-03-14T06:18:39;98071.56;;;22.87;43.80
74621;BME280;64861;47.546;19.254;2023-03-14T06:21:05;98074.03;;;22.88;43.70
74621;BME280;64861;47.546;19.254;2023-03-14T06:23:31;98066.03;;;22.88;43.83
74621;BME280;64861;47.546;19.254;2023-03-14T06:25:57;98079.13;;;22.90;43.81
74621;BME280;64861;47.546;19.254;2023-03-14T06:28:22;98079.78;;;22.85;44.01
74621;BME280;64861;47.546;19.254;2023-03-14T06:30:48;98087.94;;;22.90;43.81
74621;BME280;64861;47.546;19.254;2023-03-14T06:33:13;98079.16;;;22.96;43.75
74621;BME280;64861;47.546;19.254;2023-03-14T06:35:38;98084.47;;;22.90;43.67
74621;BME280;64861;47.546;19.254;2023-03-14T06:38:04;98076.09;;;22.93;43.83
74621;BME280;64861;47.546;19.254;2023-03-14T06:40:30;98086.34;;;22.96;43.82
74621;BME280;64861;47.546;19.254;2023-03-14T06:42:55;98075.69;;;22.96;43.81
74621;BME280;64861;47.546;19.254;2023-03-14T06:45:21;98080.78;;;22.97;43.92
74621;BME280;64861;47.546;19.254;2023-03-14T06:47:46;98086.75;;;23.00;44.20
74621;BME280;64861;47.546;19.254;2023-03-14T06:50:11;98087.16;;;23.03;44.01
74621;BME280;64861;47.546;19.254;2023-03-14T06:52:37;98075.66;;;23.03;43.94
74621;BME280;64861;47.546;19.254;2023-03-14T06:55:06;98069.31;;;22.97;44.20
74621;BME280;64861;47.546;19.254;2023-03-14T06:57:32;98074.25;;;23.00;44.17
74621;BME280;64861;47.546;19.254;2023-03-14T06:59:57;98086.34;;;23.03;44.05
74621;BME280;64861;47.546;19.254;2023-03-14T07:02:23;98085.91;;;23.06;44.09
74621;BME280;64861;47.546;19.254;2023-03-14T07:04:48;98081.81;;;23.03;44.10
74621;BME280;64861;47.546;19.254;2023-03-14T07:07:14;98082.63;;;23.04;44.00
74621;BME280;64861;47.546;19.254;2023-03-14T07:09:40;98075.44;;;23.04;44.00
74621;BME280;64861;47.546;19.254;2023-03-14T07:12:06;98075.84;;;23.08;43.90
74621;BME280;64861;47.546;19.254;2023-03-14T07:14:32;98073.41;;;23.06;44.01
74621;BME280;64861;47.546;19.254;2023-03-14T07:16:57;98076.06;;;23.06;44.13
74621;BME280;64861;47.546;19.254;2023-03-14T07:19:22;98075.44;;;23.11;43.79
74621;BME280;64861;47.546;19.254;2023-03-14T07:21:48;98070.53;;;23.08;44.10
74621;BME280;64861;47.546;19.254;2023-03-14T07:24:14;98063.75;;;23.18;43.66
74621;BME280;64861;47.546;19.254;2023-03-14T07:26:39;98068.69;;;23.15;43.89
74621;BME280;64861;47.546;19.254;2023-03-14T07:29:04;98069.50;;;23.15;44.01
74621;BME280;64861;47.546;19.254;2023-03-14T07:31:30;98074.19;;;23.27;43.58
74621;BME280;64861;47.546;19.254;2023-03-14T07:33:56;98067.44;;;23.17;43.98
74621;BME280;64861;47.546;19.254;2023-03-14T07:36:22;98071.94;;;23.24;43.87
74621;BME280;64861;47.546;19.254;2023-03-14T07:38:47;98061.63;;;23.40;43.27
74621;BME280;64861;47.546;19.254;2023-03-14T07:41:13;98052.97;;;23.52;43.01
74621;BME280;64861;47.546;19.254;2023-03-14T07:43:38;98062.81;;;23.58;42.83
74621;BME280;64861;47.546;19.254;2023-03-14T07:46:04;98057.88;;;23.68;42.45
74621;BME280;64861;47.546;19.254;2023-03-14T07:48:30;98056.03;;;23.68;42.55
74621;BME280;64861;47.546;19.254;2023-03-14T07:50:55;98050.03;;;23.73;42.37
74621;BME280;64861;47.546;19.254;2023-03-14T07:53:22;98048.75;;;23.82;42.38
74621;BME280;64861;47.546;19.254;2023-03-14T07:55:48;98050.19;;;23.85;41.93
74621;BME280;64861;47.546;19.254;2023-03-14T07:58:15;98048.75;;;23.82;41.92
74621;BME280;64861;47.546;19.254;2023-03-14T08:00:40;98050.00;;;23.80;41.91
74621;BME280;64861;47.546;19.254;2023-03-14T08:03:06;98044.00;;;23.91;41.88
74621;BME280;64861;47.546;19.254;2023-03-14T08:05:34;98044.19;;;23.89;41.77
74621;BME280;64861;47.546;19.254;2023-03-14T08:08:00;98038.25;;;23.94;41.85
74621;BME280;64861;47.546;19.254;2023-03-14T08:10:26;98032.41;;;24.04;41.56
74621;BME280;64861;47.546;19.254;2023-03-14T08:12:58;98034.88;;;24.05;41.31
74621;BME280;64861;47.546;19.254;2023-03-14T08:15:25;98038.13;;;24.14;41.41
74621;BME280;64861;47.546;19.254;2023-03-14T08:17:51;98029.75;;;24.04;40.91
74621;BME280;64861;47.546;19.254;2023-03-14T08:20:18;98025.19;;;24.11;41.40
74621;BME280;64861;47.546;19.254;2023-03-14T08:22:44;98016.31;;;24.17;41.13
74621;BME280;64861;47.546;19.254;2023-03-14T08:25:10;98011.81;;;24.18;41.11
74621;BME280;64861;47.546;19.254;2023-03-14T08:27:36;98016.31;;;24.17;41.25
74621;BME280;64861;47.546;19.254;2023-03-14T08:30:05;98010.16;;;24.17;41.09
74621;BME280;64861;47.546;19.254;2023-03-14T08:32:30;98010.38;;;24.15;41.02
74621;BME280;64861;47.546;19.254;2023-03-14T08:34:56;98015.09;;;24.13;41.19
74621;BME280;64861;47.546;19.254;2023-03-14T08:37:21;98017.13;;;24.18;41.21
74621;BME280;64861;47.546;19.254;2023-03-14T08:39:47;98012.13;;;24.28;41.06
74621;BME280;64861;47.546;19.254;2023-03-14T08:42:13;98014.91;;;24.39;40.90
74621;BME280;64861;47.546;19.254;2023-03-14T08:44:38;98008.16;;;24.44;40.45
74621;BME280;64861;47.546;19.254;2023-03-14T08:47:04;98006.22;;;24.51;40.47
74621;BME280;64861;47.546;19.254;2023-03-14T08:49:29;98001.88;;;24.75;39.96
74621;BME280;64861;47.546;19.254;2023-03-14T08:51:55;97999.34;;;25.23;38.99
74621;BME280;64861;47.546;19.254;2023-03-14T08:54:20;98006.41;;;25.66;38.10
74621;BME280;64861;47.546;19.254;2023-03-14T08:56:45;97999.19;;;26.51;36.65
74621;BME280;64861;47.546;19.254;2023-03-14T08:59:11;97995.03;;;27.71;34.26
74621;BME280;64861;47.546;19.254;2023-03-14T09:01:36;97987.47;;;28.30;33.13
74621;BME280;64861;47.546;19.254;2023-03-14T09:04:02;97982.91;;;28.81;29.80
74621;BME280;64861;47.546;19.254;2023-03-14T09:06:27;97979.59;;;28.96;26.71
74621;BME280;64861;47.546;19.254;2023-03-14T09:08:53;97960.38;;;28.65;26.09
74621;BME280;64861;47.546;19.254;2023-03-14T09:11:18;97960.09;;;28.67;25.02
74621;BME280;64861;47.546;19.254;2023-03-14T09:13:44;97964.75;;;28.71;24.60
74621;BME280;64861;47.546;19.254;2023-03-14T09:16:09;97954.19;;;28.65;24.69
74621;BME280;64861;47.546;19.254;2023-03-14T09:18:35;97956.31;;;29.01;24.09
74621;BME280;64861;47.546;19.254;2023-03-14T09:21:01;97949.94;;;29.08;23.72
74621;BME280;64861;47.546;19.254;2023-03-14T09:23:27;97945.09;;;29.10;23.41
74621;BME280;64861;47.546;19.254;2023-03-14T09:25:56;97941.41;;;29.16;22.93
74621;BME280;64861;47.546;19.254;2023-03-14T09:28:22;97936.66;;;29.01;22.95
74621;BME280;64861;47.546;19.254;2023-03-14T09:30:48;97930.25;;;29.29;23.08
74621;BME280;64861;47.546;19.254;2023-03-14T09:33:15;97947.50;;;29.33;22.35
74621;BME280;64861;47.546;19.254;2023-03-14T09:35:40;97929.81;;;29.37;22.18
74621;BME280;64861;47.546;19.254;2023-03-14T09:38:06;97934.13;;;29.92;22.98
74621;BME280;64861;47.546;19.254;2023-03-14T09:40:34;97936.53;;;30.21;24.34
74621;BME280;64861;47.546;19.254;2023-03-14T09:43:00;97937.81;;;30.13;24.57
74621;BME280;64861;47.546;19.254;2023-03-14T09:45:31;97933.63;;;30.28;24.95
74621;BME280;64861;47.546;19.254;2023-03-14T09:47:58;97934.34;;;30.18;25.75
74621;BME280;64861;47.546;19.254;2023-03-14T09:50:25;97929.19;;;30.16;26.09
74621;BME280;64861;47.546;19.254;2023-03-14T09:52:59;97930.34;;;30.21;26.13
74621;BME280;64861;47.546;19.254;2023-03-14T09:55:27;97910.41;;;29.89;26.49
74621;BME280;64861;47.546;19.254;2023-03-14T09:58:02;97921.22;;;29.94;26.71
74621;BME280;64861;47.546;19.254;2023-03-14T10:00:30;97901.94;;;29.76;27.06
74621;BME280;64861;47.546;19.254;2023-03-14T10:03:09;97897.31;;;30.03;27.07
74621;BME280;64861;47.546;19.254;2023-03-14T10:05:40;97900.44;;;29.90;27.33
74621;BME280;64861;47.546;19.254;2023-03-14T10:08:11;97900.25;;;29.69;27.87
74621;BME280;64861;47.546;19.254;2023-03-14T10:10:37;97895.03;;;29.85;27.69
74621;BME280;64861;47.546;19.254;2023-03-14T10:13:18;97901.06;;;29.70;27.95
74621;BME280;64861;47.546;19.254;2023-03-14T10:16:04;97887.16;;;29.78;28.02
74621;BME280;64861;47.546;19.254;2023-03-14T10:18:31;97884.69;;;29.77;28.18
74621;BME280;64861;47.546;19.254;2023-03-14T10:23:51;97883.88;;;30.08;27.93
74621;BME280;64861;47.546;19.254;2023-03-14T10:26:27;97881.00;;;29.56;28.69
74621;BME280;64861;47.546;19.254;2023-03-14T10:29:01;97873.19;;;29.86;28.44
74621;BME280;64861;47.546;19.254;2023-03-14T10:31:26;97864.19;;;29.16;28.69
74621;BME280;64861;47.546;19.254;2023-03-14T10:34:03;97861.81;;;29.20;29.01
74621;BME280;64861;47.546;19.254;2023-03-14T10:36:31;97865.88;;;29.22;28.89
74621;BME280;64861;47.546;19.254;2023-03-14T10:39:16;97866.66;;;28.52;29.73
74621;BME280;64861;47.546;19.254;2023-03-14T10:41:49;97868.97;;;27.76;29.18
74621;BME280;64861;47.546;19.254;2023-03-14T10:44:20;97851.56;;;27.16;31.30
74621;BME280;64861;47.546;19.254;2023-03-14T10:46:56;97848.22;;;26.97;32.36
74621;BME280;64861;47.546;19.254;2023-03-14T10:49:30;97852.91;;;26.90;32.78
74621;BME280;64861;47.546;19.254;2023-03-14T10:52:14;97850.31;;;26.95;32.92
74621;BME280;64861;47.546;19.254;2023-03-14T10:54:40;97842.66;;;26.87;33.02
74621;BME280;64861;47.546;19.254;2023-03-14T10:57:05;97834.75;;;26.16;34.11
74621;BME280;64861;47.546;19.254;2023-03-14T10:59:36;97841.13;;;26.15;34.43
74621;BME280;64861;47.546;19.254;2023-03-14T11:04:48;97827.19;;;25.90;35.04
74621;BME280;64861;47.546;19.254;2023-03-14T11:09:56;97810.28;;;27.17;33.28
74621;BME280;64861;47.546;19.254;2023-03-14T11:15:16;97794.16;;;27.79;32.31
74621;BME280;64861;47.546;19.254;2023-03-14T11:20:55;97794.50;;;26.63;34.58
74621;BME280;64861;47.546;19.254;2023-03-14T11:23:32;97792.38;;;27.06;34.36
74621;BME280;64861;47.546;19.254;2023-03-14T11:26:23;97792.97;;;26.67;35.08
74621;BME280;64861;47.546;19.254;2023-03-14T11:28:57;97778.75;;;26.15;35.88
74621;BME280;64861;47.546;19.254;2023-03-14T11:31:29;97772.97;;;25.94;36.72
74621;BME280;64861;47.546;19.254;2023-03-14T11:34:16;97770.38;;;25.76;36.87
74621;BME280;64861;47.546;19.254;2023-03-14T11:37:01;97749.19;;;25.39;37.57
74621;BME280;64861;47.546;19.254;2023-03-14T11:39:40;97758.50;;;25.37;37.71
74621;BME280;64861;47.546;19.254;2023-03-14T11:42:12;97744.41;;;25.29;38.07
74621;BME280;64861;47.546;19.254;2023-03-14T11:44:39;97753.72;;;25.27;37.91
74621;BME280;64861;47.546;19.254;2023-03-14T11:47:30;97746.72;;;25.14;38.19
74621;BME280;64861;47.546;19.254;2023-03-14T11:50:19;97742.72;;;25.05;38.69
74621;BME280;64861;47.546;19.254;2023-03-14T11:52:56;97740.94;;;24.99;38.78
74621;BME280;64861;47.546;19.254;2023-03-14T11:55:35;97734.09;;;25.03;38.56
74621;BME280;64861;47.546;19.254;2023-03-14T11:58:14;97726.53;;;25.00;38.70
74621;BME280;64861;47.546;19.254;2023-03-14T12:00:41;97735.59;;;24.99;38.71
74621;BME280;64861;47.546;19.254;2023-03-14T12:03:33;97733.03;;;24.92;38.78
74621;BME280;64861;47.546;19.254;2023-03-14T12:11:12;97716.56;;;24.65;39.42
74621;BME280;64861;47.546;19.254;2023-03-14T12:13:40;97714.50;;;24.67;39.50
74621;BME280;64861;47.546;19.254;2023-03-14T12:16:25;97715.41;;;24.61;39.62
74621;BME280;64861;47.546;19.254;2023-03-14T12:18:52;97709.25;;;24.60;39.60
74621;BME280;64861;47.546;19.254;2023-03-14T12:21:19;97703.31;;;24.58;39.58
74621;BME280;64861;47.546;19.254;2023-03-14T12:23:51;97701.91;;;24.56;39.71
74621;BME280;64861;47.546;19.254;2023-03-14T12:26:20;97692.28;;;24.55;39.81
74621;BME280;64861;47.546;19.254;2023-03-14T12:28:50;97688.19;;;24.52;39.99
74621;BME280;64861;47.546;19.254;2023-03-14T12:44:51;97671.50;;;24.38;40.27
74621;BME280;64861;47.546;19.254;2023-03-14T12:49:50;97667.78;;;24.39;40.28
74621;BME280;64861;47.546;19.254;2023-03-14T12:52:30;97663.25;;;24.40;40.20
74621;BME280;64861;47.546;19.254;2023-03-14T12:57:59;97647.47;;;24.38;40.45
74621;BME280;64861;47.546;19.254;2023-03-14T13:00:38;97641.25;;;24.45;40.24
74621;BME280;64861;47.546;19.254;2023-03-14T13:03:39;97640.81;;;24.48;40.22
74621;BME280;64861;47.546;19.254;2023-03-14T13:06:09;97646.50;;;24.51;40.05
74621;BME280;64861;47.546;19.254;2023-03-14T13:08:43;97654.16;;;24.48;40.44
74621;BME280;64861;47.546;19.254;2023-03-14T13:11:15;97625.97;;;24.33;40.43
74621;BME280;64861;47.546;19.254;2023-03-14T13:14:07;97638.66;;;24.38;40.51
74621;BME280;64861;47.546;19.254;2023-03-14T13:16:30;97634.59;;;24.35;40.55
74621;BME280;64861;47.546;19.254;2023-03-14T13:19:18;97627.84;;;24.33;40.62
74621;BME280;64861;47.546;19.254;2023-03-14T13:21:45;97622.13;;;24.29;40.75
74621;BME280;64861;47.546;19.254;2023-03-14T13:24:25;97620.97;;;24.25;40.60
74621;BME280;64861;47.546;19.254;2023-03-14T13:26:55;97627.56;;;24.23;40.89
74621;BME280;64861;47.546;19.254;2023-03-14T13:29:28;97610.38;;;24.19;41.14
74621;BME280;64861;47.546;19.254;2023-03-14T13:31:55;97623.94;;;24.17;40.83
74621;BME280;64861;47.546;19.254;2023-03-14T13:34:28;97624.19;;;24.15;40.35
74621;BME280;64861;47.546;19.254;2023-03-14T13:36:54;97634.78;;;24.04;40.82
74621;BME280;64861;47.546;19.254;2023-03-14T13:39:22;97642.50;;;24.12;40.91
74621;BME280;64861;47.546;19.254;2023-03-14T13:41:53;97636.72;;;24.15;40.87
74621;BME280;64861;47.546;19.254;2023-03-14T13:44:30;97637.75;;;24.14;41.19
74621;BME280;64861;47.546;19.254;2023-03-14T13:47:01;97643.91;;;24.14;41.07
74621;BME280;64861;47.546;19.254;2023-03-14T13:49:29;97647.59;;;24.13;41.05